Mugan — 9HA2962 — position and weather

sailwx.info

Track history (hours):
 
Tides and Currents Weather Stations Pressure Air Temp Water Temp Dewpoint Dewpoint Depression Visibility Wind Speed Wind Dir Waves Ship Positions

Mugan

Last reported at 2017-Jul-23 06:04 UTC. Time now 2017-Jul-23 10:55 UTC.
Position N 39°40' E 000°57'.

Length 140 m; draft 4.5 m.

Type: Ship (hazmat cat B). MMSI: 256914000.

Date/timePositionNaut miles runAvg speedWind from/ knotsBaromVisibWave heightAir tempDewpointWater temp
2017-Jul-23 06:04N 39°40' E 000°57'3 9.8
2017-Jul-23 05:48N 39°42' E 000°59'3 9.9
2017-Jul-23 05:30N 39°45' E 001°00'5 9.9
2017-Jul-23 05:00N 39°49' E 001°03'510.0
2017-Jul-23 04:30N 39°54' E 001°06'510.1
2017-Jul-23 04:00N 39°58' E 001°09'510.1
2017-Jul-23 03:30N 40°03' E 001°12'510.1
2017-Jul-23 03:00N 40°07' E 001°14'510.1
2017-Jul-23 02:30N 40°12' E 001°17'510.2
2017-Jul-23 02:00N 40°16' E 001°20'510.3
2017-Jul-23 01:30N 40°21' E 001°23'510.3
2017-Jul-23 00:58N 40°26' E 001°26'510.3
2017-Jul-23 00:30N 40°30' E 001°29'510.1
2017-Jul-23 00:00N 40°35' E 001°32'510.0
2017-Jul-22 23:30N 40°39' E 001°34'510.1
2017-Jul-22 23:00N 40°44' E 001°32'510.2
2017-Jul-22 22:28N 40°50' E 001°30'510.2
2017-Jul-22 22:00N 40°53' E 001°26'710.3
2017-Jul-22 21:22N 40°58' E 001°20'8 0.3
2017-Jul-21 20:35N 41°05' E 001°15'18 2.0
2017-Jul-21 11:48N 40°50' E 001°30'310.2
2017-Jul-21 11:27N 40°48' E 001°33'6 7.2
2017-Jul-21 10:34N 40°42' E 001°33'1 9.8
2017-Jul-21 10:28N 40°41' E 001°32'5 9.9
2017-Jul-21 09:57N 40°37' E 001°27'4 9.9
2017-Jul-21 09:30N 40°34' E 001°23'5 9.9
2017-Jul-21 09:00N 40°31' E 001°19'5 9.9
2017-Jul-21 08:30N 40°27' E 001°14'5 9.9
2017-Jul-21 08:00N 40°24' E 001°09'5 9.8
2017-Jul-21 07:29N 40°21' E 001°04'5 9.8
2017-Jul-21 06:58N 40°18' E 000°59'11 8.6
2017-Jul-21 05:42N 40°11' E 000°48'0 0.0
2017-Jul-20 19:58N 40°11' E 000°48'0 0.0
2017-Jul-20 17:28N 40°11' E 000°48'0 0.0
2017-Jul-20 08:46N 40°11' E 000°48'0 0.0
2017-Jul-20 08:16N 40°11' E 000°48'0 0.1
2017-Jul-20 07:58N 40°11' E 000°48'0 0.0
2017-Jul-19 09:40N 40°11' E 000°48'0 0.0
2017-Jul-19 09:16N 40°11' E 000°48'0 0.0
2017-Jul-19 08:52N 40°11' E 000°48'0 0.0
2017-Jul-19 08:16N 40°11' E 000°48'0 0.0
2017-Jul-19 07:58N 40°11' E 000°48'0 0.0
2017-Jul-19 07:28N 40°11' E 000°48'0 0.0
2017-Jul-19 06:58N 40°11' E 000°48'0 0.0
2017-Jul-19 06:04N 40°11' E 000°48'0 0.0
2017-Jul-19 05:58N 40°11' E 000°48'0 0.0
2017-Jul-19 05:28N 40°11' E 000°48'0 0.0
2017-Jul-18 23:43N 40°11' E 000°48'0 0.0
2017-Jul-18 23:16N 40°11' E 000°48'0 0.0
2017-Jul-18 22:58N 40°11' E 000°48'0 0.0
2017-Jul-18 22:04N 40°11' E 000°48'0 0.0
2017-Jul-18 21:46N 40°11' E 000°48'0 0.1
2017-Jul-18 21:28N 40°11' E 000°48'0 0.0
2017-Jul-18 20:52N 40°11' E 000°48'0 0.0
2017-Jul-18 19:22N 40°11' E 000°48'0 0.0
2017-Jul-18 18:46N 40°11' E 000°48'0 0.0
2017-Jul-18 18:10N 40°11' E 000°48'0 0.0
2017-Jul-18 17:46N 40°11' E 000°48'0 0.0
2017-Jul-18 17:16N 40°11' E 000°48'0 0.0
2017-Jul-18 16:58N 40°11' E 000°48'0 0.0
2017-Jul-18 16:22N 40°11' E 000°48'0 0.0
2017-Jul-18 15:43N 40°11' E 000°48'0 0.0
2017-Jul-18 15:28N 40°11' E 000°48'0 0.0
2017-Jul-18 14:46N 40°11' E 000°48'0 0.0
2017-Jul-18 13:52N 40°11' E 000°48'0 0.0
2017-Jul-18 13:28N 40°11' E 000°48'0 0.0
2017-Jul-18 12:46N 40°11' E 000°48'0 0.0
2017-Jul-18 12:10N 40°11' E 000°48'0 0.0
2017-Jul-18 11:52N 40°11' E 000°48'0 0.0
2017-Jul-18 09:22N 40°11' E 000°48'0 0.0
2017-Jul-18 08:04N 40°11' E 000°48'0 0.1
2017-Jul-18 07:58N 40°11' E 000°48'0 0.0
2017-Jul-18 05:10N 40°11' E 000°48'0 0.0
2017-Jul-18 04:58N 40°11' E 000°48'0 0.0
2017-Jul-18 04:28N 40°11' E 000°48'0 0.0
2017-Jul-18 02:40N 40°11' E 000°48'0 0.0
2017-Jul-18 02:28N 40°11' E 000°48'0 0.0
2017-Jul-18 01:46N 40°11' E 000°48'0 0.0
2017-Jul-18 00:16N 40°11' E 000°48'0 0.0
2017-Jul-17 23:58N 40°11' E 000°48'0 0.0
2017-Jul-17 23:16N 40°11' E 000°48'0 0.0
2017-Jul-17 22:52N 40°11' E 000°48'0 0.0
2017-Jul-17 22:28N 40°11' E 000°48'0 0.0
2017-Jul-17 21:58N 40°11' E 000°48'0 0.0
2017-Jul-17 21:22N 40°11' E 000°48'0 0.0
2017-Jul-17 18:10N 40°11' E 000°48'0 0.0
2017-Jul-17 17:58N 40°11' E 000°48'0 0.0
2017-Jul-17 17:28N 40°11' E 000°48'0 0.0
2017-Jul-17 16:58N 40°11' E 000°48'0 0.0
2017-Jul-17 16:22N 40°11' E 000°48'0 0.0
2017-Jul-17 15:58N 40°11' E 000°48'0 0.0
2017-Jul-17 15:28N 40°11' E 000°48'0 0.0
2017-Jul-17 14:40N 40°11' E 000°48'0 0.0
2017-Jul-17 14:16N 40°11' E 000°48'0 0.0
2017-Jul-17 11:28N 40°11' E 000°48'0 0.0
2017-Jul-17 09:58N 40°11' E 000°48'0 0.0
2017-Jul-17 08:34N 40°11' E 000°48'0 0.0
2017-Jul-17 08:10N 40°11' E 000°48'0 0.0
2017-Jul-17 07:46N 40°11' E 000°48'0 0.0
2017-Jul-17 07:16N 40°11' E 000°48'0 0.0
2017-Jul-17 06:58N 40°11' E 000°48'0 0.0
2017-Jul-17 05:58N 40°11' E 000°48'0 0.0
2017-Jul-17 05:28N 40°11' E 000°48'0 0.0
2017-Jul-17 04:58N 40°11' E 000°48'0 0.0
2017-Jul-17 04:04N 40°11' E 000°48'0 0.0
2017-Jul-17 02:28N 40°11' E 000°48'0 0.0
2017-Jul-17 01:46N 40°11' E 000°48'0 0.0
2017-Jul-17 01:28N 40°11' E 000°48'0 0.0
2017-Jul-17 00:10N 40°11' E 000°48'0 0.0
2017-Jul-16 20:58N 40°11' E 000°48'0 0.0
2017-Jul-16 20:28N 40°11' E 000°48'0 0.0
2017-Jul-16 19:58N 40°11' E 000°48'0 0.0
2017-Jul-16 12:34N 40°11' E 000°48'0 0.0
2017-Jul-16 12:22N 40°11' E 000°48'0 0.3
2017-Jul-16 11:58N 40°11' E 000°48'2 5.3
2017-Jul-16 11:31N 40°09' E 000°50'510.2
2017-Jul-16 11:00N 40°04' E 000°53'510.3
2017-Jul-16 10:30N 39°59' E 000°54'510.4
2017-Jul-16 10:00N 39°54' E 000°55'610.4
2017-Jul-16 09:25N 39°48' E 000°54'141 9.8
2017-Jul-15 19:05N 37°41' W 000°24'1 9.7
2017-Jul-15 19:00N 37°40' W 000°25'5 9.8
2017-Jul-15 18:30N 37°36' W 000°28'5 9.7
2017-Jul-15 18:00N 37°32' W 000°32'9 9.7
2017-Jul-15 17:07N 37°31' W 000°43'110.2
2017-Jul-15 16:59N 37°31' W 000°45'18 0.4
2017-Jul-13 20:59N 37°33' W 001°07'4 7.4
2017-Jul-13 20:26N 37°32' W 001°02'4 9.3
2017-Jul-13 20:00N 37°31' W 000°57'5 9.3
2017-Jul-13 19:30N 37°32' W 000°51'5 9.7
2017-Jul-13 19:00N 37°32' W 000°45'6 9.8
2017-Jul-13 18:20N 37°33' W 000°37'4 9.6
2017-Jul-13 17:58N 37°35' W 000°33'510.0
2017-Jul-13 17:25N 37°39' W 000°29'410.1
2017-Jul-13 17:00N 37°43' W 000°26'12 9.8
2017-Jul-13 15:47N 37°53' W 000°18'3 9.9
2017-Jul-13 15:27N 37°56' W 000°16'4 9.9
2017-Jul-13 15:00N 37°60' W 000°13'510.0
2017-Jul-13 14:30N 38°04' W 000°09'610.0
2017-Jul-13 13:55N 38°09' W 000°05'1710.0
2017-Jul-13 12:15N 38°23' E 000°06'2 9.9
2017-Jul-13 12:00N 38°25' E 000°08'5 9.8
2017-Jul-13 11:28N 38°29' E 000°11'15 9.9
2017-Jul-13 09:58N 38°42' E 000°22'  
Track history (hours):
 
Tides and Currents Weather Stations Pressure Air Temp Water Temp Dewpoint Dewpoint Depression Visibility Wind Speed Wind Dir Waves Ship Positions

Mugan

Last reported at 2017-Jul-23 06:04 UTC. Time now 2017-Jul-23 10:55 UTC.
Position N 39°40' E 000°57'.

Length 140 m; draft 4.5 m.

Type: Ship (hazmat cat B). MMSI: 256914000.

Date/timePositionNaut miles runAvg speedWind from/ knotsBaromVisibWave heightAir tempDewpointWater temp
2017-Jul-23 06:04N 39°40' E 000°57'3 9.8
2017-Jul-23 05:48N 39°42' E 000°59'3 9.9
2017-Jul-23 05:30N 39°45' E 001°00'5 9.9
2017-Jul-23 05:00N 39°49' E 001°03'510.0
2017-Jul-23 04:30N 39°54' E 001°06'510.1
2017-Jul-23 04:00N 39°58' E 001°09'510.1
2017-Jul-23 03:30N 40°03' E 001°12'510.1
2017-Jul-23 03:00N 40°07' E 001°14'510.1
2017-Jul-23 02:30N 40°12' E 001°17'510.2
2017-Jul-23 02:00N 40°16' E 001°20'510.3
2017-Jul-23 01:30N 40°21' E 001°23'510.3
2017-Jul-23 00:58N 40°26' E 001°26'510.3
2017-Jul-23 00:30N 40°30' E 001°29'510.1
2017-Jul-23 00:00N 40°35' E 001°32'510.0
2017-Jul-22 23:30N 40°39' E 001°34'510.1
2017-Jul-22 23:00N 40°44' E 001°32'510.2
2017-Jul-22 22:28N 40°50' E 001°30'510.2
2017-Jul-22 22:00N 40°53' E 001°26'710.3
2017-Jul-22 21:22N 40°58' E 001°20'8 0.3
2017-Jul-21 20:35N 41°05' E 001°15'18 2.0
2017-Jul-21 11:48N 40°50' E 001°30'310.2
2017-Jul-21 11:27N 40°48' E 001°33'6 7.2
2017-Jul-21 10:34N 40°42' E 001°33'1 9.8
2017-Jul-21 10:28N 40°41' E 001°32'5 9.9
2017-Jul-21 09:57N 40°37' E 001°27'4 9.9
2017-Jul-21 09:30N 40°34' E 001°23'5 9.9
2017-Jul-21 09:00N 40°31' E 001°19'5 9.9
2017-Jul-21 08:30N 40°27' E 001°14'5 9.9
2017-Jul-21 08:00N 40°24' E 001°09'5 9.8
2017-Jul-21 07:29N 40°21' E 001°04'5 9.8
2017-Jul-21 06:58N 40°18' E 000°59'11 8.6
2017-Jul-21 05:42N 40°11' E 000°48'0 0.0
2017-Jul-20 19:58N 40°11' E 000°48'0 0.0
2017-Jul-20 17:28N 40°11' E 000°48'0 0.0
2017-Jul-20 08:46N 40°11' E 000°48'0 0.0
2017-Jul-20 08:16N 40°11' E 000°48'0 0.1
2017-Jul-20 07:58N 40°11' E 000°48'0 0.0
2017-Jul-19 09:40N 40°11' E 000°48'0 0.0
2017-Jul-19 09:16N 40°11' E 000°48'0 0.0
2017-Jul-19 08:52N 40°11' E 000°48'0 0.0
2017-Jul-19 08:16N 40°11' E 000°48'0 0.0
2017-Jul-19 07:58N 40°11' E 000°48'0 0.0
2017-Jul-19 07:28N 40°11' E 000°48'0 0.0
2017-Jul-19 06:58N 40°11' E 000°48'0 0.0
2017-Jul-19 06:04N 40°11' E 000°48'0 0.0
2017-Jul-19 05:58N 40°11' E 000°48'0 0.0
2017-Jul-19 05:28N 40°11' E 000°48'0 0.0
2017-Jul-18 23:43N 40°11' E 000°48'0 0.0
2017-Jul-18 23:16N 40°11' E 000°48'0 0.0
2017-Jul-18 22:58N 40°11' E 000°48'0 0.0
2017-Jul-18 22:04N 40°11' E 000°48'0 0.0
2017-Jul-18 21:46N 40°11' E 000°48'0 0.1
2017-Jul-18 21:28N 40°11' E 000°48'0 0.0
2017-Jul-18 20:52N 40°11' E 000°48'0 0.0
2017-Jul-18 19:22N 40°11' E 000°48'0 0.0
2017-Jul-18 18:46N 40°11' E 000°48'0 0.0
2017-Jul-18 18:10N 40°11' E 000°48'0 0.0
2017-Jul-18 17:46N 40°11' E 000°48'0 0.0
2017-Jul-18 17:16N 40°11' E 000°48'0 0.0
2017-Jul-18 16:58N 40°11' E 000°48'0 0.0
2017-Jul-18 16:22N 40°11' E 000°48'0 0.0
2017-Jul-18 15:43N 40°11' E 000°48'0 0.0
2017-Jul-18 15:28N 40°11' E 000°48'0 0.0
2017-Jul-18 14:46N 40°11' E 000°48'0 0.0
2017-Jul-18 13:52N 40°11' E 000°48'0 0.0
2017-Jul-18 13:28N 40°11' E 000°48'0 0.0
2017-Jul-18 12:46N 40°11' E 000°48'0 0.0
2017-Jul-18 12:10N 40°11' E 000°48'0 0.0
2017-Jul-18 11:52N 40°11' E 000°48'0 0.0
2017-Jul-18 09:22N 40°11' E 000°48'0 0.0
2017-Jul-18 08:04N 40°11' E 000°48'0 0.1
2017-Jul-18 07:58N 40°11' E 000°48'0 0.0
2017-Jul-18 05:10N 40°11' E 000°48'0 0.0
2017-Jul-18 04:58N 40°11' E 000°48'0 0.0
2017-Jul-18 04:28N 40°11' E 000°48'0 0.0
2017-Jul-18 02:40N 40°11' E 000°48'0 0.0
2017-Jul-18 02:28N 40°11' E 000°48'0 0.0
2017-Jul-18 01:46N 40°11' E 000°48'0 0.0
2017-Jul-18 00:16N 40°11' E 000°48'0 0.0
2017-Jul-17 23:58N 40°11' E 000°48'0 0.0
2017-Jul-17 23:16N 40°11' E 000°48'0 0.0
2017-Jul-17 22:52N 40°11' E 000°48'0 0.0
2017-Jul-17 22:28N 40°11' E 000°48'0 0.0
2017-Jul-17 21:58N 40°11' E 000°48'0 0.0
2017-Jul-17 21:22N 40°11' E 000°48'0 0.0
2017-Jul-17 18:10N 40°11' E 000°48'0 0.0
2017-Jul-17 17:58N 40°11' E 000°48'0 0.0
2017-Jul-17 17:28N 40°11' E 000°48'0 0.0
2017-Jul-17 16:58N 40°11' E 000°48'0 0.0
2017-Jul-17 16:22N 40°11' E 000°48'0 0.0
2017-Jul-17 15:58N 40°11' E 000°48'0 0.0
2017-Jul-17 15:28N 40°11' E 000°48'0 0.0
2017-Jul-17 14:40N 40°11' E 000°48'0 0.0
2017-Jul-17 14:16N 40°11' E 000°48'0 0.0
2017-Jul-17 11:28N 40°11' E 000°48'0 0.0
2017-Jul-17 09:58N 40°11' E 000°48'0 0.0
2017-Jul-17 08:34N 40°11' E 000°48'0 0.0
2017-Jul-17 08:10N 40°11' E 000°48'0 0.0
2017-Jul-17 07:46N 40°11' E 000°48'0 0.0
2017-Jul-17 07:16N 40°11' E 000°48'0 0.0
2017-Jul-17 06:58N 40°11' E 000°48'0 0.0
2017-Jul-17 05:58N 40°11' E 000°48'0 0.0
2017-Jul-17 05:28N 40°11' E 000°48'0 0.0
2017-Jul-17 04:58N 40°11' E 000°48'0 0.0
2017-Jul-17 04:04N 40°11' E 000°48'0 0.0
2017-Jul-17 02:28N 40°11' E 000°48'0 0.0
2017-Jul-17 01:46N 40°11' E 000°48'0 0.0
2017-Jul-17 01:28N 40°11' E 000°48'0 0.0
2017-Jul-17 00:10N 40°11' E 000°48'0 0.0
2017-Jul-16 20:58N 40°11' E 000°48'0 0.0
2017-Jul-16 20:28N 40°11' E 000°48'0 0.0
2017-Jul-16 19:58N 40°11' E 000°48'0 0.0
2017-Jul-16 12:34N 40°11' E 000°48'0 0.0
2017-Jul-16 12:22N 40°11' E 000°48'0 0.3
2017-Jul-16 11:58N 40°11' E 000°48'2 5.3
2017-Jul-16 11:31N 40°09' E 000°50'510.2
2017-Jul-16 11:00N 40°04' E 000°53'510.3
2017-Jul-16 10:30N 39°59' E 000°54'510.4
2017-Jul-16 10:00N 39°54' E 000°55'610.4
2017-Jul-16 09:25N 39°48' E 000°54'141 9.8
2017-Jul-15 19:05N 37°41' W 000°24'1 9.7
2017-Jul-15 19:00N 37°40' W 000°25'5 9.8
2017-Jul-15 18:30N 37°36' W 000°28'5 9.7
2017-Jul-15 18:00N 37°32' W 000°32'9 9.7
2017-Jul-15 17:07N 37°31' W 000°43'110.2
2017-Jul-15 16:59N 37°31' W 000°45'18 0.4
2017-Jul-13 20:59N 37°33' W 001°07'4 7.4
2017-Jul-13 20:26N 37°32' W 001°02'4 9.3
2017-Jul-13 20:00N 37°31' W 000°57'5 9.3
2017-Jul-13 19:30N 37°32' W 000°51'5 9.7
2017-Jul-13 19:00N 37°32' W 000°45'6 9.8
2017-Jul-13 18:20N 37°33' W 000°37'4 9.6
2017-Jul-13 17:58N 37°35' W 000°33'510.0
2017-Jul-13 17:25N 37°39' W 000°29'410.1
2017-Jul-13 17:00N 37°43' W 000°26'12 9.8
2017-Jul-13 15:47N 37°53' W 000°18'3 9.9
2017-Jul-13 15:27N 37°56' W 000°16'4 9.9
2017-Jul-13 15:00N 37°60' W 000°13'510.0
2017-Jul-13 14:30N 38°04' W 000°09'610.0
2017-Jul-13 13:55N 38°09' W 000°05'1710.0
2017-Jul-13 12:15N 38°23' E 000°06'2 9.9
2017-Jul-13 12:00N 38°25' E 000°08'5 9.8
2017-Jul-13 11:28N 38°29' E 000°11'15 9.9
2017-Jul-13 09:58N 38°42' E 000°22'  

Dump ship's entire track history